sensor_id;sensor_type;location;lat;lon;timestamp;pressure;altitude;pressure_sealevel;temperature;humidity
36254;BME280;22291;52.250;21.228;2023-11-22T00:02:13;100898.09;;;-2.22;90.98
36254;BME280;22291;52.250;21.228;2023-11-22T00:04:39;100895.66;;;-2.23;90.96
36254;BME280;22291;52.250;21.228;2023-11-22T00:07:06;100892.20;;;-2.24;90.86
36254;BME280;22291;52.250;21.228;2023-11-22T00:09:33;100895.78;;;-2.28;90.74
36254;BME280;22291;52.250;21.228;2023-11-22T00:12:00;100894.66;;;-2.29;90.59
36254;BME280;22291;52.250;21.228;2023-11-22T00:14:27;100897.11;;;-2.28;90.75
36254;BME280;22291;52.250;21.228;2023-11-22T00:16:53;100906.38;;;-2.28;90.81
36254;BME280;22291;52.250;21.228;2023-11-22T00:19:20;100903.52;;;-2.26;90.88
36254;BME280;22291;52.250;21.228;2023-11-22T00:21:48;100901.68;;;-2.26;90.82
36254;BME280;22291;52.250;21.228;2023-11-22T00:24:15;100908.30;;;-2.26;90.89
36254;BME280;22291;52.250;21.228;2023-11-22T00:26:42;100902.41;;;-2.28;90.59
36254;BME280;22291;52.250;21.228;2023-11-22T00:29:09;100904.74;;;-2.29;90.41
36254;BME280;22291;52.250;21.228;2023-11-22T00:31:36;100911.08;;;-2.30;90.40
36254;BME280;22291;52.250;21.228;2023-11-22T00:34:02;100914.42;;;-2.32;90.28
36254;BME280;22291;52.250;21.228;2023-11-22T00:36:29;100922.09;;;-2.33;90.28
36254;BME280;22291;52.250;21.228;2023-11-22T00:38:56;100925.27;;;-2.33;90.20
36254;BME280;22291;52.250;21.228;2023-11-22T00:41:23;100923.10;;;-2.34;90.31
36254;BME280;22291;52.250;21.228;2023-11-22T00:43:49;100925.47;;;-2.35;90.14
36254;BME280;22291;52.250;21.228;2023-11-22T00:46:17;100929.93;;;-2.35;90.24
36254;BME280;22291;52.250;21.228;2023-11-22T00:48:43;100931.89;;;-2.33;90.24
36254;BME280;22291;52.250;21.228;2023-11-22T00:51:10;100933.09;;;-2.29;90.50
36254;BME280;22291;52.250;21.228;2023-11-22T00:53:37;100939.30;;;-2.26;90.33
36254;BME280;22291;52.250;21.228;2023-11-22T00:56:05;100934.49;;;-2.27;90.09
36254;BME280;22291;52.250;21.228;2023-11-22T00:58:33;100941.64;;;-2.27;89.83
36254;BME280;22291;52.250;21.228;2023-11-22T01:00:59;100937.87;;;-2.29;89.69
36254;BME280;22291;52.250;21.228;2023-11-22T01:03:26;100940.12;;;-2.32;89.38
36254;BME280;22291;52.250;21.228;2023-11-22T01:05:52;100944.30;;;-2.34;89.38
36254;BME280;22291;52.250;21.228;2023-11-22T01:08:19;100945.02;;;-2.36;89.19
36254;BME280;22291;52.250;21.228;2023-11-22T01:10:46;100940.94;;;-2.38;89.04
36254;BME280;22291;52.250;21.228;2023-11-22T01:13:13;100947.48;;;-2.41;88.80
36254;BME280;22291;52.250;21.228;2023-11-22T01:15:41;100950.85;;;-2.43;88.82
36254;BME280;22291;52.250;21.228;2023-11-22T01:18:08;100959.94;;;-2.48;88.56
36254;BME280;22291;52.250;21.228;2023-11-22T01:20:34;100958.41;;;-2.53;88.36
36254;BME280;22291;52.250;21.228;2023-11-22T01:23:01;100949.23;;;-2.57;88.15
36254;BME280;22291;52.250;21.228;2023-11-22T01:25:28;100953.92;;;-2.59;88.23
36254;BME280;22291;52.250;21.228;2023-11-22T01:27:55;100949.03;;;-2.63;88.13
36254;BME280;22291;52.250;21.228;2023-11-22T01:30:21;100957.70;;;-2.65;88.13
36254;BME280;22291;52.250;21.228;2023-11-22T01:32:48;100956.29;;;-2.67;87.82
36254;BME280;22291;52.250;21.228;2023-11-22T01:35:15;100956.89;;;-2.72;87.79
36254;BME280;22291;52.250;21.228;2023-11-22T01:37:41;100961.06;;;-2.73;87.64
36254;BME280;22291;52.250;21.228;2023-11-22T01:40:09;100958.30;;;-2.76;87.67
36254;BME280;22291;52.250;21.228;2023-11-22T01:42:37;100966.16;;;-2.78;87.57
36254;BME280;22291;52.250;21.228;2023-11-22T01:45:08;100968.80;;;-2.78;87.65
36254;BME280;22291;52.250;21.228;2023-11-22T01:47:36;100966.77;;;-2.83;87.34
36254;BME280;22291;52.250;21.228;2023-11-22T01:50:08;100969.61;;;-2.85;87.40
36254;BME280;22291;52.250;21.228;2023-11-22T01:52:36;100967.68;;;-2.87;87.12
36254;BME280;22291;52.250;21.228;2023-11-22T01:55:06;100969.72;;;-2.89;87.15
36254;BME280;22291;52.250;21.228;2023-11-22T01:57:35;100975.22;;;-2.90;87.08
36254;BME280;22291;52.250;21.228;2023-11-22T02:00:04;100982.55;;;-2.92;87.01
36254;BME280;22291;52.250;21.228;2023-11-22T02:02:35;100978.66;;;-2.96;86.83
36254;BME280;22291;52.250;21.228;2023-11-22T02:05:03;100977.34;;;-2.96;87.04
36254;BME280;22291;52.250;21.228;2023-11-22T02:07:32;100983.35;;;-2.98;86.96
36254;BME280;22291;52.250;21.228;2023-11-22T02:09:59;100986.00;;;-2.98;86.82
36254;BME280;22291;52.250;21.228;2023-11-22T02:12:29;100977.13;;;-3.02;86.42
36254;BME280;22291;52.250;21.228;2023-11-22T02:14:57;100978.36;;;-3.04;86.53
36254;BME280;22291;52.250;21.228;2023-11-22T02:17:26;100976.92;;;-3.07;86.50
36254;BME280;22291;52.250;21.228;2023-11-22T02:19:55;100980.09;;;-3.07;86.59
36254;BME280;22291;52.250;21.228;2023-11-22T02:22:22;100989.03;;;-3.08;86.53
36254;BME280;22291;52.250;21.228;2023-11-22T02:24:49;100986.09;;;-3.09;86.71
36254;BME280;22291;52.250;21.228;2023-11-22T02:27:15;100988.42;;;-3.10;86.46
36254;BME280;22291;52.250;21.228;2023-11-22T02:29:42;100985.69;;;-3.13;86.39
36254;BME280;22291;52.250;21.228;2023-11-22T02:32:09;100991.17;;;-3.14;86.30
36254;BME280;22291;52.250;21.228;2023-11-22T02:34:36;100999.31;;;-3.16;86.23
36254;BME280;22291;52.250;21.228;2023-11-22T02:37:03;101000.52;;;-3.19;86.05
36254;BME280;22291;52.250;21.228;2023-11-22T02:42:27;101004.39;;;-3.21;86.35
36254;BME280;22291;52.250;21.228;2023-11-22T02:44:54;101009.08;;;-3.23;86.12
36254;BME280;22291;52.250;21.228;2023-11-22T02:47:20;101000.10;;;-3.22;86.20
36254;BME280;22291;52.250;21.228;2023-11-22T02:49:47;101001.75;;;-3.21;86.37
36254;BME280;22291;52.250;21.228;2023-11-22T02:52:14;101008.36;;;-3.21;86.39
36254;BME280;22291;52.250;21.228;2023-11-22T02:54:45;101014.46;;;-3.21;86.25
36254;BME280;22291;52.250;21.228;2023-11-22T02:57:12;101018.02;;;-3.24;86.10
36254;BME280;22291;52.250;21.228;2023-11-22T02:59:43;101028.09;;;-3.24;86.21
36254;BME280;22291;52.250;21.228;2023-11-22T03:02:11;101031.77;;;-3.25;85.95
36254;BME280;22291;52.250;21.228;2023-11-22T03:04:38;101039.09;;;-3.27;85.83
36254;BME280;22291;52.250;21.228;2023-11-22T03:07:05;101033.48;;;-3.28;85.94
36254;BME280;22291;52.250;21.228;2023-11-22T03:09:33;101033.16;;;-3.29;85.89
36254;BME280;22291;52.250;21.228;2023-11-22T03:12:00;101031.74;;;-3.31;85.62
36254;BME280;22291;52.250;21.228;2023-11-22T03:14:29;101036.91;;;-3.34;85.53
36254;BME280;22291;52.250;21.228;2023-11-22T03:16:57;101042.91;;;-3.36;85.36
36254;BME280;22291;52.250;21.228;2023-11-22T03:19:23;101054.72;;;-3.39;85.27
36254;BME280;22291;52.250;21.228;2023-11-22T03:21:50;101058.27;;;-3.42;85.42
36254;BME280;22291;52.250;21.228;2023-11-22T03:24:17;101057.53;;;-3.47;85.09
36254;BME280;22291;52.250;21.228;2023-11-22T03:26:45;101060.24;;;-3.51;85.03
36254;BME280;22291;52.250;21.228;2023-11-22T03:29:11;101065.82;;;-3.57;84.80
36254;BME280;22291;52.250;21.228;2023-11-22T03:31:42;101069.23;;;-3.63;84.89
36254;BME280;22291;52.250;21.228;2023-11-22T03:34:10;101080.23;;;-3.66;84.92
36254;BME280;22291;52.250;21.228;2023-11-22T03:36:39;101083.97;;;-3.71;84.87
36254;BME280;22291;52.250;21.228;2023-11-22T03:39:06;101090.16;;;-3.74;84.68
36254;BME280;22291;52.250;21.228;2023-11-22T03:41:32;101093.38;;;-3.79;85.15
36254;BME280;22291;52.250;21.228;2023-11-22T03:43:59;101086.20;;;-3.85;85.03
36254;BME280;22291;52.250;21.228;2023-11-22T03:46:25;101095.41;;;-3.92;84.76
36254;BME280;22291;52.250;21.228;2023-11-22T03:48:52;101102.30;;;-3.98;84.65
36254;BME280;22291;52.250;21.228;2023-11-22T03:51:18;101105.89;;;-4.05;84.54
36254;BME280;22291;52.250;21.228;2023-11-22T03:53:46;101118.86;;;-4.10;84.42
36254;BME280;22291;52.250;21.228;2023-11-22T03:56:13;101117.48;;;-4.17;84.33
36254;BME280;22291;52.250;21.228;2023-11-22T03:58:40;101116.56;;;-4.20;84.60
36254;BME280;22291;52.250;21.228;2023-11-22T04:01:08;101118.64;;;-4.26;84.47
36254;BME280;22291;52.250;21.228;2023-11-22T04:03:34;101129.47;;;-4.32;84.41
36254;BME280;22291;52.250;21.228;2023-11-22T04:06:01;101142.43;;;-4.37;84.38
36254;BME280;22291;52.250;21.228;2023-11-22T04:08:28;101149.08;;;-4.41;84.35
36254;BME280;22291;52.250;21.228;2023-11-22T04:10:56;101160.23;;;-4.46;84.43
36254;BME280;22291;52.250;21.228;2023-11-22T04:13:23;101171.02;;;-4.52;84.20
36254;BME280;22291;52.250;21.228;2023-11-22T04:15:51;101174.43;;;-4.58;84.30
36254;BME280;22291;52.250;21.228;2023-11-22T04:18:17;101177.30;;;-4.63;84.27
36254;BME280;22291;52.250;21.228;2023-11-22T04:20:45;101184.48;;;-4.68;84.21
36254;BME280;22291;52.250;21.228;2023-11-22T04:23:13;101184.22;;;-4.73;84.30
36254;BME280;22291;52.250;21.228;2023-11-22T04:25:42;101181.80;;;-4.79;84.31
36254;BME280;22291;52.250;21.228;2023-11-22T04:28:10;101181.68;;;-4.81;84.17
36254;BME280;22291;52.250;21.228;2023-11-22T04:30:38;101185.86;;;-4.87;84.16
36254;BME280;22291;52.250;21.228;2023-11-22T04:33:06;101193.84;;;-4.91;84.12
36254;BME280;22291;52.250;21.228;2023-11-22T04:35:33;101193.39;;;-4.95;84.30
36254;BME280;22291;52.250;21.228;2023-11-22T04:38:02;101197.38;;;-4.99;84.37
36254;BME280;22291;52.250;21.228;2023-11-22T04:40:31;101203.86;;;-5.01;84.48
36254;BME280;22291;52.250;21.228;2023-11-22T04:42:58;101198.31;;;-5.07;84.45
36254;BME280;22291;52.250;21.228;2023-11-22T04:45:25;101212.38;;;-5.10;84.56
36254;BME280;22291;52.250;21.228;2023-11-22T04:47:51;101220.32;;;-5.14;84.45
36254;BME280;22291;52.250;21.228;2023-11-22T04:50:18;101218.55;;;-5.18;84.37
36254;BME280;22291;52.250;21.228;2023-11-22T04:52:46;101221.75;;;-5.22;84.57
36254;BME280;22291;52.250;21.228;2023-11-22T04:55:12;101213.18;;;-5.25;84.59
36254;BME280;22291;52.250;21.228;2023-11-22T04:57:39;101220.64;;;-5.28;84.68
36254;BME280;22291;52.250;21.228;2023-11-22T05:00:08;101224.95;;;-5.31;84.60
36254;BME280;22291;52.250;21.228;2023-11-22T05:02:37;101227.14;;;-5.35;84.71
36254;BME280;22291;52.250;21.228;2023-11-22T05:05:08;101226.05;;;-5.40;84.74
36254;BME280;22291;52.250;21.228;2023-11-22T05:07:36;101213.91;;;-5.46;84.71
36254;BME280;22291;52.250;21.228;2023-11-22T05:10:06;101222.33;;;-5.46;84.63
36254;BME280;22291;52.250;21.228;2023-11-22T05:12:36;101228.94;;;-5.50;84.66
36254;BME280;22291;52.250;21.228;2023-11-22T05:15:08;101240.68;;;-5.53;84.79
36254;BME280;22291;52.250;21.228;2023-11-22T05:17:37;101249.45;;;-5.56;84.85
36254;BME280;22291;52.250;21.228;2023-11-22T05:20:06;101254.56;;;-5.59;85.09
36254;BME280;22291;52.250;21.228;2023-11-22T05:22:37;101259.38;;;-5.63;84.91
36254;BME280;22291;52.250;21.228;2023-11-22T05:25:05;101263.20;;;-5.65;85.09
36254;BME280;22291;52.250;21.228;2023-11-22T05:27:32;101262.23;;;-5.68;85.04
36254;BME280;22291;52.250;21.228;2023-11-22T05:29:59;101265.86;;;-5.69;85.01
36254;BME280;22291;52.250;21.228;2023-11-22T05:32:29;101265.40;;;-5.73;85.01
36254;BME280;22291;52.250;21.228;2023-11-22T05:34:57;101266.38;;;-5.74;85.18
36254;BME280;22291;52.250;21.228;2023-11-22T05:37:24;101262.47;;;-5.78;85.19
36254;BME280;22291;52.250;21.228;2023-11-22T05:39:50;101265.11;;;-5.78;85.20
36254;BME280;22291;52.250;21.228;2023-11-22T05:42:18;101263.50;;;-5.83;85.05
36254;BME280;22291;52.250;21.228;2023-11-22T05:44:45;101273.41;;;-5.85;85.10
36254;BME280;22291;52.250;21.228;2023-11-22T05:47:11;101278.85;;;-5.87;85.30
36254;BME280;22291;52.250;21.228;2023-11-22T05:49:40;101274.10;;;-5.91;85.31
36254;BME280;22291;52.250;21.228;2023-11-22T05:52:06;101287.45;;;-5.93;85.33
36254;BME280;22291;52.250;21.228;2023-11-22T05:54:33;101292.08;;;-5.95;85.25
36254;BME280;22291;52.250;21.228;2023-11-22T05:56:59;101291.47;;;-5.97;85.37
36254;BME280;22291;52.250;21.228;2023-11-22T05:59:27;101296.41;;;-5.98;85.67
36254;BME280;22291;52.250;21.228;2023-11-22T06:01:56;101297.89;;;-5.99;85.46
36254;BME280;22291;52.250;21.228;2023-11-22T06:04:23;101305.16;;;-6.02;85.50
36254;BME280;22291;52.250;21.228;2023-11-22T06:06:50;101312.93;;;-6.04;85.42
36254;BME280;22291;52.250;21.228;2023-11-22T06:09:19;101317.05;;;-6.06;85.57
36254;BME280;22291;52.250;21.228;2023-11-22T06:11:45;101312.26;;;-6.06;85.68
36254;BME280;22291;52.250;21.228;2023-11-22T06:14:13;101314.59;;;-6.07;85.85
36254;BME280;22291;52.250;21.228;2023-11-22T06:16:41;101316.89;;;-6.08;85.61
36254;BME280;22291;52.250;21.228;2023-11-22T06:19:09;101308.37;;;-6.14;85.52
36254;BME280;22291;52.250;21.228;2023-11-22T06:21:35;101320.54;;;-6.13;85.45
36254;BME280;22291;52.250;21.228;2023-11-22T06:24:05;101319.39;;;-6.15;85.46
36254;BME280;22291;52.250;21.228;2023-11-22T06:26:35;101333.91;;;-6.19;85.24
36254;BME280;22291;52.250;21.228;2023-11-22T06:29:04;101338.54;;;-6.21;85.67
36254;BME280;22291;52.250;21.228;2023-11-22T06:31:34;101335.06;;;-6.22;85.75
36254;BME280;22291;52.250;21.228;2023-11-22T06:34:00;101343.81;;;-6.21;85.72
36254;BME280;22291;52.250;21.228;2023-11-22T06:36:28;101349.72;;;-6.23;85.66
36254;BME280;22291;52.250;21.228;2023-11-22T06:38:57;101354.00;;;-6.22;85.73
36254;BME280;22291;52.250;21.228;2023-11-22T06:41:26;101357.95;;;-6.22;85.78
36254;BME280;22291;52.250;21.228;2023-11-22T06:43:55;101361.27;;;-6.24;85.68
36254;BME280;22291;52.250;21.228;2023-11-22T06:46:21;101365.86;;;-6.22;85.92
36254;BME280;22291;52.250;21.228;2023-11-22T06:48:50;101362.89;;;-6.19;86.47
36254;BME280;22291;52.250;21.228;2023-11-22T06:51:18;101367.95;;;-6.13;86.61
36254;BME280;22291;52.250;21.228;2023-11-22T06:53:46;101377.17;;;-6.09;86.79
36254;BME280;22291;52.250;21.228;2023-11-22T06:56:13;101376.50;;;-6.07;86.90
36254;BME280;22291;52.250;21.228;2023-11-22T06:58:41;101383.55;;;-6.04;86.96
36254;BME280;22291;52.250;21.228;2023-11-22T07:01:08;101386.19;;;-6.04;86.68
36254;BME280;22291;52.250;21.228;2023-11-22T07:03:37;101393.42;;;-6.02;86.53
36254;BME280;22291;52.250;21.228;2023-11-22T07:06:05;101390.61;;;-6.00;86.68
36254;BME280;22291;52.250;21.228;2023-11-22T07:08:33;101399.02;;;-6.01;86.24
36254;BME280;22291;52.250;21.228;2023-11-22T07:11:02;101395.71;;;-5.98;86.29
36254;BME280;22291;52.250;21.228;2023-11-22T07:13:30;101400.81;;;-5.97;86.20
36254;BME280;22291;52.250;21.228;2023-11-22T07:16:00;101405.72;;;-5.94;86.54
36254;BME280;22291;52.250;21.228;2023-11-22T07:18:26;101404.19;;;-5.88;86.87
36254;BME280;22291;52.250;21.228;2023-11-22T07:20:55;101406.14;;;-5.82;87.29
36254;BME280;22291;52.250;21.228;2023-11-22T07:23:23;101418.31;;;-5.77;87.07
36254;BME280;22291;52.250;21.228;2023-11-22T07:25:53;101422.23;;;-5.73;86.94
36254;BME280;22291;52.250;21.228;2023-11-22T07:28:22;101436.69;;;-5.65;87.03
36254;BME280;22291;52.250;21.228;2023-11-22T07:30:48;101426.44;;;-5.64;87.23
36254;BME280;22291;52.250;21.228;2023-11-22T07:33:15;101420.82;;;-5.56;87.10
36254;BME280;22291;52.250;21.228;2023-11-22T07:35:41;101429.45;;;-5.44;87.43
36254;BME280;22291;52.250;21.228;2023-11-22T07:38:11;101427.17;;;-5.23;87.95
36254;BME280;22291;52.250;21.228;2023-11-22T07:40:40;101428.73;;;-4.91;90.18
36254;BME280;22291;52.250;21.228;2023-11-22T07:43:08;101442.23;;;-4.37;93.37
36254;BME280;22291;52.250;21.228;2023-11-22T07:45:36;101441.92;;;-3.83;94.26
36254;BME280;22291;52.250;21.228;2023-11-22T07:48:06;101442.74;;;-3.24;95.79
36254;BME280;22291;52.250;21.228;2023-11-22T07:50:34;101437.41;;;-2.53;97.58
36254;BME280;22291;52.250;21.228;2023-11-22T07:53:02;101431.96;;;-1.85;96.82
36254;BME280;22291;52.250;21.228;2023-11-22T07:55:32;101425.27;;;-1.24;96.13
36254;BME280;22291;52.250;21.228;2023-11-22T07:58:00;101431.58;;;-0.65;95.44
36254;BME280;22291;52.250;21.228;2023-11-22T08:00:28;101427.27;;;-0.03;94.26
36254;BME280;22291;52.250;21.228;2023-11-22T08:02:56;101436.33;;;0.50;93.13
36254;BME280;22291;52.250;21.228;2023-11-22T08:05:24;101435.90;;;1.10;92.46
36254;BME280;22291;52.250;21.228;2023-11-22T08:07:54;101430.83;;;1.71;91.23
36254;BME280;22291;52.250;21.228;2023-11-22T08:10:23;101433.39;;;2.24;89.51
36254;BME280;22291;52.250;21.228;2023-11-22T08:12:53;101428.28;;;2.74;88.35
36254;BME280;22291;52.250;21.228;2023-11-22T08:15:20;101430.27;;;3.23;86.82
36254;BME280;22291;52.250;21.228;2023-11-22T08:17:48;101437.95;;;3.67;85.63
36254;BME280;22291;52.250;21.228;2023-11-22T08:20:17;101446.06;;;4.10;83.66
36254;BME280;22291;52.250;21.228;2023-11-22T08:22:46;101445.17;;;4.47;81.87
36254;BME280;22291;52.250;21.228;2023-11-22T08:25:15;101452.72;;;4.79;81.14
36254;BME280;22291;52.250;21.228;2023-11-22T08:27:46;101444.70;;;5.13;80.05
36254;BME280;22291;52.250;21.228;2023-11-22T08:30:15;101445.23;;;5.49;78.77
36254;BME280;22291;52.250;21.228;2023-11-22T08:32:43;101442.77;;;5.84;77.18
36254;BME280;22291;52.250;21.228;2023-11-22T08:35:14;101445.44;;;6.01;75.18
36254;BME280;22291;52.250;21.228;2023-11-22T08:37:43;101453.06;;;6.34;74.82
36254;BME280;22291;52.250;21.228;2023-11-22T08:40:11;101457.16;;;6.66;74.21
36254;BME280;22291;52.250;21.228;2023-11-22T08:42:42;101467.31;;;6.89;72.38
36254;BME280;22291;52.250;21.228;2023-11-22T08:45:10;101483.03;;;7.02;71.92
36254;BME280;22291;52.250;21.228;2023-11-22T08:47:40;101475.75;;;7.33;70.50
36254;BME280;22291;52.250;21.228;2023-11-22T08:50:08;101481.82;;;7.55;68.99
36254;BME280;22291;52.250;21.228;2023-11-22T08:52:42;101481.69;;;7.77;68.64
36254;BME280;22291;52.250;21.228;2023-11-22T08:55:11;101486.14;;;8.07;67.77
36254;BME280;22291;52.250;21.228;2023-11-22T08:57:40;101486.04;;;8.44;67.04
36254;BME280;22291;52.250;21.228;2023-11-22T09:00:11;101489.36;;;8.72;65.60
36254;BME280;22291;52.250;21.228;2023-11-22T09:02:40;101477.25;;;8.87;64.16
36254;BME280;22291;52.250;21.228;2023-11-22T09:05:08;101475.88;;;8.67;60.93
36254;BME280;22291;52.250;21.228;2023-11-22T09:07:38;101479.36;;;8.75;61.99
36254;BME280;22291;52.250;21.228;2023-11-22T09:10:09;101498.28;;;9.06;62.02
36254;BME280;22291;52.250;21.228;2023-11-22T09:12:43;101500.20;;;9.33;61.48
36254;BME280;22291;52.250;21.228;2023-11-22T09:15:12;101511.25;;;9.52;60.38
36254;BME280;22291;52.250;21.228;2023-11-22T09:17:46;101513.13;;;9.54;60.11
36254;BME280;22291;52.250;21.228;2023-11-22T09:20:15;101511.98;;;9.97;59.31
36254;BME280;22291;52.250;21.228;2023-11-22T09:22:49;101506.83;;;10.03;57.99
36254;BME280;22291;52.250;21.228;2023-11-22T09:25:20;101509.77;;;10.09;56.38
36254;BME280;22291;52.250;21.228;2023-11-22T09:27:52;101510.83;;;10.16;55.94
36254;BME280;22291;52.250;21.228;2023-11-22T09:30:24;101501.72;;;9.96;54.70
36254;BME280;22291;52.250;21.228;2023-11-22T09:33:01;101495.20;;;10.05;54.93
36254;BME280;22291;52.250;21.228;2023-11-22T09:35:31;101490.21;;;10.38;55.63
36254;BME280;22291;52.250;21.228;2023-11-22T09:38:03;101494.86;;;10.74;55.42
36254;BME280;22291;52.250;21.228;2023-11-22T09:40:32;101487.44;;;10.93;54.09
36254;BME280;22291;52.250;21.228;2023-11-22T09:43:01;101484.13;;;11.03;53.07
36254;BME280;22291;52.250;21.228;2023-11-22T09:45:30;101486.44;;;11.18;52.66
36254;BME280;22291;52.250;21.228;2023-11-22T09:47:59;101471.81;;;11.75;52.70
36254;BME280;22291;52.250;21.228;2023-11-22T09:50:42;101465.22;;;11.81;51.59
36254;BME280;22291;52.250;21.228;2023-11-22T09:53:19;101462.58;;;12.03;50.15
36254;BME280;22291;52.250;21.228;2023-11-22T09:55:47;101469.25;;;12.32;50.23
36254;BME280;22291;52.250;21.228;2023-11-22T09:58:17;101463.63;;;12.83;49.35
36254;BME280;22291;52.250;21.228;2023-11-22T10:00:45;101453.42;;;13.10;48.31
36254;BME280;22291;52.250;21.228;2023-11-22T10:03:13;101440.61;;;13.13;46.94
36254;BME280;22291;52.250;21.228;2023-11-22T10:05:42;101439.80;;;13.59;47.53
36254;BME280;22291;52.250;21.228;2023-11-22T10:08:10;101438.22;;;13.97;45.98
36254;BME280;22291;52.250;21.228;2023-11-22T10:10:39;101437.37;;;14.25;45.75
36254;BME280;22291;52.250;21.228;2023-11-22T10:13:06;101445.81;;;14.62;45.05
36254;BME280;22291;52.250;21.228;2023-11-22T10:15:32;101443.80;;;14.68;43.55
36254;BME280;22291;52.250;21.228;2023-11-22T10:18:01;101444.64;;;15.00;43.58
36254;BME280;22291;52.250;21.228;2023-11-22T10:20:42;101450.27;;;15.46;43.22
36254;BME280;22291;52.250;21.228;2023-11-22T10:23:13;101449.23;;;15.64;42.96
36254;BME280;22291;52.250;21.228;2023-11-22T10:25:49;101447.58;;;15.75;41.88
36254;BME280;22291;52.250;21.228;2023-11-22T10:28:20;101442.95;;;15.55;41.43
36254;BME280;22291;52.250;21.228;2023-11-22T10:30:50;101442.98;;;15.75;41.41
36254;BME280;22291;52.250;21.228;2023-11-22T10:33:19;101437.37;;;15.69;40.83
36254;BME280;22291;52.250;21.228;2023-11-22T10:35:50;101444.91;;;15.63;40.61
36254;BME280;22291;52.250;21.228;2023-11-22T10:38:19;101445.78;;;15.81;41.31
36254;BME280;22291;52.250;21.228;2023-11-22T10:40:46;101444.55;;;15.96;40.60
36254;BME280;22291;52.250;21.228;2023-11-22T10:43:20;101450.97;;;16.00;39.20
36254;BME280;22291;52.250;21.228;2023-11-22T10:45:51;101466.40;;;16.05;39.64
36254;BME280;22291;52.250;21.228;2023-11-22T10:48:19;101460.87;;;16.08;39.57
36254;BME280;22291;52.250;21.228;2023-11-22T10:50:48;101467.92;;;16.09;39.14
36254;BME280;22291;52.250;21.228;2023-11-22T10:53:20;101470.87;;;16.30;39.18
36254;BME280;22291;52.250;21.228;2023-11-22T10:55:53;101469.67;;;16.33;38.86
36254;BME280;22291;52.250;21.228;2023-11-22T10:58:25;101463.22;;;16.20;38.61
36254;BME280;22291;52.250;21.228;2023-11-22T11:00:55;101461.47;;;16.16;38.46
36254;BME280;22291;52.250;21.228;2023-11-22T11:03:26;101460.20;;;16.02;38.31
36254;BME280;22291;52.250;21.228;2023-11-22T11:05:59;101460.87;;;16.08;38.54
36254;BME280;22291;52.250;21.228;2023-11-22T11:08:32;101452.53;;;16.04;37.25
36254;BME280;22291;52.250;21.228;2023-11-22T11:11:01;101445.70;;;15.75;37.80
36254;BME280;22291;52.250;21.228;2023-11-22T11:13:30;101436.84;;;15.49;37.71
36254;BME280;22291;52.250;21.228;2023-11-22T11:16:02;101443.28;;;15.22;36.99
36254;BME280;22291;52.250;21.228;2023-11-22T11:18:34;101446.88;;;15.09;37.30
36254;BME280;22291;52.250;21.228;2023-11-22T11:21:08;101453.87;;;15.12;37.64
36254;BME280;22291;52.250;21.228;2023-11-22T11:23:40;101445.75;;;15.21;37.68
36254;BME280;22291;52.250;21.228;2023-11-22T11:26:18;101448.66;;;15.13;37.83
36254;BME280;22291;52.250;21.228;2023-11-22T11:28:51;101440.43;;;15.05;37.32
36254;BME280;22291;52.250;21.228;2023-11-22T11:31:21;101430.91;;;14.71;36.94
36254;BME280;22291;52.250;21.228;2023-11-22T11:33:56;101435.14;;;14.41;37.64
36254;BME280;22291;52.250;21.228;2023-11-22T11:36:28;101429.77;;;14.24;37.19
36254;BME280;22291;52.250;21.228;2023-11-22T11:39:05;101420.84;;;13.96;36.93
36254;BME280;22291;52.250;21.228;2023-11-22T11:41:39;101429.67;;;13.90;37.28
36254;BME280;22291;52.250;21.228;2023-11-22T11:44:09;101431.41;;;13.86;36.92
36254;BME280;22291;52.250;21.228;2023-11-22T11:46:39;101432.31;;;13.68;36.67
36254;BME280;22291;52.250;21.228;2023-11-22T11:49:09;101435.82;;;13.54;36.64
36254;BME280;22291;52.250;21.228;2023-11-22T11:51:38;101433.59;;;13.42;36.58
36254;BME280;22291;52.250;21.228;2023-11-22T11:54:13;101431.06;;;13.32;36.83
36254;BME280;22291;52.250;21.228;2023-11-22T11:56:40;101430.83;;;13.29;37.32
36254;BME280;22291;52.250;21.228;2023-11-22T11:59:11;101435.20;;;13.27;37.48
36254;BME280;22291;52.250;21.228;2023-11-22T12:01:37;101435.50;;;13.09;37.53
36254;BME280;22291;52.250;21.228;2023-11-22T12:04:07;101431.13;;;13.11;37.69
36254;BME280;22291;52.250;21.228;2023-11-22T12:06:33;101429.50;;;12.96;36.47
36254;BME280;22291;52.250;21.228;2023-11-22T12:09:02;101417.56;;;12.78;36.89
36254;BME280;22291;52.250;21.228;2023-11-22T12:11:31;101425.60;;;12.66;37.14
36254;BME280;22291;52.250;21.228;2023-11-22T12:14:00;101428.66;;;12.62;37.25
36254;BME280;22291;52.250;21.228;2023-11-22T12:16:28;101428.47;;;12.56;37.34
36254;BME280;22291;52.250;21.228;2023-11-22T12:19:00;101432.62;;;12.51;36.96
36254;BME280;22291;52.250;21.228;2023-11-22T12:21:30;101429.55;;;12.39;36.90
36254;BME280;22291;52.250;21.228;2023-11-22T12:24:07;101422.20;;;12.20;37.30
36254;BME280;22291;52.250;21.228;2023-11-22T12:26:39;101418.83;;;12.09;36.83
36254;BME280;22291;52.250;21.228;2023-11-22T12:29:12;101422.52;;;11.97;37.08
36254;BME280;22291;52.250;21.228;2023-11-22T12:31:46;101427.12;;;11.96;38.11
36254;BME280;22291;52.250;21.228;2023-11-22T12:34:18;101435.25;;;11.96;37.92
36254;BME280;22291;52.250;21.228;2023-11-22T12:36:51;101440.20;;;11.89;37.58
36254;BME280;22291;52.250;21.228;2023-11-22T12:39:21;101442.58;;;11.72;37.58
36254;BME280;22291;52.250;21.228;2023-11-22T12:41:54;101449.98;;;11.61;37.38
36254;BME280;22291;52.250;21.228;2023-11-22T12:44:25;101443.13;;;11.45;37.32
36254;BME280;22291;52.250;21.228;2023-11-22T12:46:57;101439.69;;;11.36;38.02
36254;BME280;22291;52.250;21.228;2023-11-22T12:49:27;101427.55;;;11.29;38.26
36254;BME280;22291;52.250;21.228;2023-11-22T12:51:56;101417.80;;;11.01;37.79